Rotterdam Express — DMRX — position and weather

sailwx.info

Track history (hours):
 
Tides and Currents Weather Stations Pressure Air Temp Water Temp Dewpoint Dewpoint Depression Visibility Wind Speed Wind Dir Waves Ship Positions

Rotterdam Express

Last reported at 2017-Mar-26 00:00 UTC. Time now 2017-Mar-29 21:12 UTC.
Position N 17°30' W 070°18'.

Length 294 m; beam 32.2 m; draft 13.6 m.

Type: Ship. MMSI: 211335760.

Wind from 080 at 7 knots

Barometer 1013.4 mb
Air temperature 26.2 ° C
Visibility: greater than 5.4 NM
Dewpoint 20.8 ° C
Water temperature 28.0 ° C

Date/timePositionNaut miles runAvg speedWind from/ knotsBaromVisibWave heightAir tempDewpointWater temp
2017-Mar-26 00:00N 17°30' W 070°18'118 9.9 080 / 71013.4 5.4 26.220.828.0
2017-Mar-25 12:00N 15°54' W 071°30'13915.4 060 / 171014.610.8 26.923.228.0
2017-Mar-25 03:00N 14°06' W 073°00'15713.1 060 / 151014.610.8 26.622.928.0
2017-Mar-24 15:00N 12°00' W 074°36'340 7.0 070 / 171014.3 5.4 27.824.028.0
2017-Mar-22 14:16N 09°32' W 079°48'1014.2
2017-Mar-22 13:33N 09°24' W 079°54'2 2.3
2017-Mar-22 12:33N 09°22' W 079°53'0 0.0
2017-Mar-22 11:33N 09°22' W 079°53'0 0.0
2017-Mar-22 10:27N 09°22' W 079°53'0 0.0
2017-Mar-22 09:33N 09°22' W 079°53'0 0.0
2017-Mar-22 08:33N 09°22' W 079°53'0 0.0
2017-Mar-22 07:27N 09°22' W 079°53'0 0.0
2017-Mar-22 06:30N 09°22' W 079°53'0 0.0
2017-Mar-22 05:33N 09°22' W 079°53'0 0.0
2017-Mar-22 04:33N 09°22' W 079°53'0 0.0
2017-Mar-22 03:33N 09°22' W 079°53'0 0.0
2017-Mar-22 02:24N 09°22' W 079°53'1 0.8
2017-Mar-22 01:33N 09°22' W 079°53'9 8.7
2017-Mar-22 00:33N 09°30' W 079°51'2 0.8
2017-Mar-21 22:23N 09°32' W 079°51'2 2.5
2017-Mar-21 21:32N 09°31' W 079°53'1 1.0
2017-Mar-21 20:33N 09°31' W 079°52'1 1.0
2017-Mar-21 19:33N 09°32' W 079°52'1 0.6
2017-Mar-21 18:14N 09°31' W 079°52'1014.0
2017-Mar-21 17:33N 09°22' W 079°55'6 5.6
2017-Mar-21 16:32N 09°17' W 079°55'1 0.6
2017-Mar-21 15:29N 09°16' W 079°55'0 0.4
2017-Mar-21 14:33N 09°16' W 079°55'2 1.4
2017-Mar-21 13:27N 09°14' W 079°55'  
Track history (hours):
 
Tides and Currents Weather Stations Pressure Air Temp Water Temp Dewpoint Dewpoint Depression Visibility Wind Speed Wind Dir Waves Ship Positions

Rotterdam Express

Last reported at 2017-Mar-26 00:00 UTC. Time now 2017-Mar-29 21:12 UTC.
Position N 17°30' W 070°18'.

Length 294 m; beam 32.2 m; draft 13.6 m.

Type: Ship. MMSI: 211335760.

Wind from 080 at 7 knots

Barometer 1013.4 mb
Air temperature 26.2 ° C
Visibility: greater than 5.4 NM
Dewpoint 20.8 ° C
Water temperature 28.0 ° C

Date/timePositionNaut miles runAvg speedWind from/ knotsBaromVisibWave heightAir tempDewpointWater temp
2017-Mar-26 00:00N 17°30' W 070°18'118 9.9 080 / 71013.4 5.4 26.220.828.0
2017-Mar-25 12:00N 15°54' W 071°30'13915.4 060 / 171014.610.8 26.923.228.0
2017-Mar-25 03:00N 14°06' W 073°00'15713.1 060 / 151014.610.8 26.622.928.0
2017-Mar-24 15:00N 12°00' W 074°36'340 7.0 070 / 171014.3 5.4 27.824.028.0
2017-Mar-22 14:16N 09°32' W 079°48'1014.2
2017-Mar-22 13:33N 09°24' W 079°54'2 2.3
2017-Mar-22 12:33N 09°22' W 079°53'0 0.0
2017-Mar-22 11:33N 09°22' W 079°53'0 0.0
2017-Mar-22 10:27N 09°22' W 079°53'0 0.0
2017-Mar-22 09:33N 09°22' W 079°53'0 0.0
2017-Mar-22 08:33N 09°22' W 079°53'0 0.0
2017-Mar-22 07:27N 09°22' W 079°53'0 0.0
2017-Mar-22 06:30N 09°22' W 079°53'0 0.0
2017-Mar-22 05:33N 09°22' W 079°53'0 0.0
2017-Mar-22 04:33N 09°22' W 079°53'0 0.0
2017-Mar-22 03:33N 09°22' W 079°53'0 0.0
2017-Mar-22 02:24N 09°22' W 079°53'1 0.8
2017-Mar-22 01:33N 09°22' W 079°53'9 8.7
2017-Mar-22 00:33N 09°30' W 079°51'2 0.8
2017-Mar-21 22:23N 09°32' W 079°51'2 2.5
2017-Mar-21 21:32N 09°31' W 079°53'1 1.0
2017-Mar-21 20:33N 09°31' W 079°52'1 1.0
2017-Mar-21 19:33N 09°32' W 079°52'1 0.6
2017-Mar-21 18:14N 09°31' W 079°52'1014.0
2017-Mar-21 17:33N 09°22' W 079°55'6 5.6
2017-Mar-21 16:32N 09°17' W 079°55'1 0.6
2017-Mar-21 15:29N 09°16' W 079°55'0 0.4
2017-Mar-21 14:33N 09°16' W 079°55'2 1.4
2017-Mar-21 13:27N 09°14' W 079°55'  

Dump ship's entire track history